createdAt,value
2018-05-21T00:01:06.731Z,5.90
2018-05-21T00:03:42.962Z,6.30
2018-05-21T00:06:20.244Z,6.20
2018-05-21T00:08:56.595Z,5.80
2018-05-21T00:11:33.053Z,6.20
2018-05-21T00:14:09.965Z,6.10
2018-05-21T00:16:46.863Z,5.70
2018-05-21T00:19:22.769Z,6.73
2018-05-21T00:21:59.201Z,6.30
2018-05-21T00:24:35.394Z,6.10
2018-05-21T00:27:11.705Z,6.20
2018-05-21T00:29:48.841Z,6.20
2018-05-21T00:32:24.972Z,7.30
2018-05-21T00:35:01.315Z,6.30
2018-05-21T00:37:39.161Z,5.93
2018-05-21T00:40:15.101Z,6.20
2018-05-21T00:42:51.094Z,6.70
2018-05-21T00:45:28.332Z,6.73
2018-05-21T00:48:04.699Z,6.57
2018-05-21T00:50:40.839Z,6.80
2018-05-21T00:53:19.001Z,6.27
2018-05-21T00:55:55.537Z,6.60
2018-05-21T00:58:32.028Z,7.63
2018-05-21T01:01:08.624Z,9.33
2018-05-21T01:03:45.446Z,7.97
2018-05-21T01:06:21.503Z,8.03
2018-05-21T01:08:58.764Z,6.60
2018-05-21T01:11:35.537Z,6.80
2018-05-21T01:14:12.423Z,6.53
2018-05-21T01:16:49.938Z,6.00
2018-05-21T01:19:25.980Z,6.53
2018-05-21T01:22:03.831Z,7.07
2018-05-21T01:24:40.157Z,7.33
2018-05-21T01:27:16.826Z,6.27
2018-05-21T01:29:52.957Z,6.60
2018-05-21T01:32:29.189Z,6.20
2018-05-21T01:35:06.074Z,6.47
2018-05-21T01:37:42.912Z,6.70
2018-05-21T01:40:18.992Z,6.70
2018-05-21T01:42:55.653Z,7.13
2018-05-21T01:45:32.236Z,6.60
2018-05-21T01:48:08.535Z,6.77
2018-05-21T01:50:45.087Z,7.10
2018-05-21T01:53:24.768Z,6.60
2018-05-21T01:56:01.474Z,6.60
2018-05-21T01:58:38.131Z,6.57
2018-05-21T02:01:14.736Z,6.77
2018-05-21T02:03:52.790Z,7.10
2018-05-21T02:06:29.022Z,6.83
2018-05-21T02:09:05.708Z,7.03
2018-05-21T02:11:41.966Z,6.30
2018-05-21T02:14:18.533Z,6.50
2018-05-21T02:16:54.528Z,7.50
2018-05-21T02:19:30.644Z,7.03
2018-05-21T02:22:06.985Z,7.03
2018-05-21T02:24:44.032Z,7.30
2018-05-21T02:27:20.003Z,6.97
2018-05-21T02:29:56.502Z,6.03
2018-05-21T02:32:33.555Z,6.83
2018-05-21T02:35:11.570Z,6.40
2018-05-21T02:37:48.080Z,7.47
2018-05-21T02:40:24.928Z,7.13
2018-05-21T02:43:01.851Z,7.00
2018-05-21T02:45:37.948Z,6.97
2018-05-21T02:48:14.229Z,6.80
2018-05-21T02:50:50.555Z,6.63
2018-05-21T02:53:27.201Z,6.40
2018-05-21T02:56:03.050Z,6.40
2018-05-21T02:58:38.787Z,7.43
2018-05-21T03:01:15.084Z,7.43
2018-05-21T03:03:51.464Z,6.83
2018-05-21T03:06:27.715Z,6.77
2018-05-21T03:09:04.165Z,6.27
2018-05-21T03:11:40.439Z,7.07
2018-05-21T03:14:16.919Z,7.47
2018-05-21T03:16:53.364Z,6.93
2018-05-21T03:19:29.240Z,7.47
2018-05-21T03:22:05.274Z,7.80
2018-05-21T03:24:42.254Z,6.83
2018-05-21T03:27:18.063Z,7.20
2018-05-21T03:29:54.439Z,7.93
2018-05-21T03:32:31.625Z,7.53
2018-05-21T03:35:08.491Z,7.50
2018-05-21T03:37:45.669Z,7.30
2018-05-21T03:40:21.935Z,8.07
2018-05-21T03:42:58.199Z,7.73
2018-05-21T03:45:34.615Z,7.20
2018-05-21T03:48:10.889Z,7.90
2018-05-21T03:50:47.583Z,7.57
2018-05-21T03:53:24.482Z,7.10
2018-05-21T03:56:01.369Z,7.30
2018-05-21T03:58:48.456Z,7.07
2018-05-21T04:02:36.687Z,7.50
2018-05-21T04:05:12.609Z,7.43
2018-05-21T04:07:49.009Z,6.90
2018-05-21T04:10:26.168Z,6.80
2018-05-21T04:13:02.257Z,7.03
2018-05-21T04:15:38.583Z,7.10
2018-05-21T04:18:16.321Z,6.80
2018-05-21T04:20:52.805Z,7.30
2018-05-21T04:23:29.566Z,7.00
2018-05-21T04:26:06.582Z,6.97
2018-05-21T04:28:42.872Z,7.00
2018-05-21T04:31:20.564Z,7.33
2018-05-21T04:33:56.822Z,6.70
2018-05-21T04:36:34.856Z,6.50
2018-05-21T04:39:10.711Z,6.77
2018-05-21T04:41:47.229Z,6.37
2018-05-21T04:44:23.293Z,6.10
2018-05-21T04:46:59.444Z,7.13
2018-05-21T04:49:36.002Z,6.70
2018-05-21T04:52:11.759Z,6.97
2018-05-21T04:54:48.285Z,6.33
2018-05-21T04:57:25.457Z,7.37
2018-05-21T05:00:01.671Z,6.70
2018-05-21T05:02:37.794Z,7.10
2018-05-21T05:05:14.867Z,6.43
2018-05-21T05:07:51.779Z,7.27
2018-05-21T05:10:28.305Z,7.00
2018-05-21T05:13:05.152Z,7.70
2018-05-21T05:15:41.256Z,6.93
2018-05-21T05:18:17.927Z,7.77
2018-05-21T05:20:54.297Z,6.80
2018-05-21T05:23:30.984Z,6.90
2018-05-21T05:26:07.269Z,7.13
2018-05-21T05:28:45.917Z,6.83
2018-05-21T05:31:22.198Z,6.60
2018-05-21T05:33:58.582Z,6.77
2018-05-21T05:36:35.310Z,6.90
2018-05-21T05:39:11.368Z,6.77
2018-05-21T05:41:47.283Z,6.67
2018-05-21T05:44:23.755Z,7.13
2018-05-21T05:46:59.986Z,6.20
2018-05-21T05:49:36.365Z,6.57
2018-05-21T05:52:12.510Z,5.93
2018-05-21T05:54:48.597Z,6.10
2018-05-21T05:57:25.018Z,6.77
2018-05-21T06:00:01.157Z,6.33
2018-05-21T06:02:37.032Z,6.30
2018-05-21T06:05:13.974Z,6.63
2018-05-21T06:07:50.486Z,5.60
2018-05-21T06:10:26.928Z,5.27
2018-05-21T06:13:04.192Z,5.40
2018-05-21T06:15:39.992Z,4.50
2018-05-21T06:18:16.612Z,4.20
2018-05-21T06:20:52.844Z,4.50
2018-05-21T06:23:28.915Z,4.27
2018-05-21T06:26:05.162Z,4.40
2018-05-21T06:28:41.531Z,4.33
2018-05-21T06:31:17.802Z,4.27
2018-05-21T06:33:54.371Z,4.30
2018-05-21T06:36:32.210Z,4.73
2018-05-21T06:39:09.152Z,4.13
2018-05-21T06:41:45.695Z,4.50
2018-05-21T06:44:22.056Z,4.70
2018-05-21T06:46:59.788Z,3.93
2018-05-21T06:49:36.452Z,4.23
2018-05-21T06:52:13.460Z,4.43
2018-05-21T06:54:49.440Z,3.87
2018-05-21T06:57:25.946Z,4.00
2018-05-21T07:00:02.708Z,4.83
2018-05-21T07:02:39.104Z,4.10
2018-05-21T07:05:15.866Z,4.10
2018-05-21T07:07:53.016Z,4.60
2018-05-21T07:10:29.612Z,4.63
2018-05-21T07:13:06.247Z,4.50
2018-05-21T07:15:42.464Z,4.60
2018-05-21T07:18:19.184Z,4.50
2018-05-21T07:20:55.678Z,4.37
2018-05-21T07:23:32.699Z,4.10
2018-05-21T07:26:08.806Z,4.70
2018-05-21T07:28:46.026Z,4.20
2018-05-21T07:31:22.335Z,4.50
2018-05-21T07:33:59.378Z,4.20
2018-05-21T07:36:36.425Z,4.10
2018-05-21T07:39:13.629Z,4.30
2018-05-21T07:41:49.729Z,4.40
2018-05-21T07:44:27.601Z,4.13
2018-05-21T07:47:04.047Z,3.70
2018-05-21T07:49:40.963Z,4.20
2018-05-21T07:52:17.410Z,4.30
2018-05-21T07:54:53.472Z,4.33
2018-05-21T07:57:29.498Z,4.10
2018-05-21T08:00:06.336Z,4.47
2018-05-21T08:02:42.664Z,4.13
2018-05-21T08:05:18.934Z,4.40
2018-05-21T08:07:55.544Z,4.43
2018-05-21T08:10:32.938Z,4.57
2018-05-21T08:13:10.168Z,4.13
2018-05-21T08:15:46.710Z,7.13
2018-05-21T08:18:23.054Z,4.27
2018-05-21T08:21:00.341Z,4.13
2018-05-21T08:23:37.533Z,3.90
2018-05-21T08:26:13.802Z,4.17
2018-05-21T08:28:51.994Z,3.80
2018-05-21T08:31:29.090Z,4.30
2018-05-21T08:34:05.917Z,4.23
2018-05-21T08:36:42.193Z,4.20
2018-05-21T08:39:18.929Z,4.10
2018-05-21T08:41:55.017Z,4.30
2018-05-21T08:44:32.427Z,4.20
2018-05-21T08:47:08.567Z,3.60
2018-05-21T08:49:44.865Z,3.63
2018-05-21T08:52:20.872Z,3.70
2018-05-21T08:54:57.216Z,3.80
2018-05-21T08:57:34.348Z,3.87
2018-05-21T09:00:11.380Z,3.50
2018-05-21T09:02:48.401Z,4.13
2018-05-21T09:05:24.831Z,3.97
2018-05-21T09:08:01.379Z,3.73
2018-05-21T09:10:38.578Z,3.70
2018-05-21T09:13:14.787Z,3.40
2018-05-21T09:15:50.895Z,3.50
2018-05-21T09:18:28.686Z,3.37
2018-05-21T09:21:04.822Z,4.00
2018-05-21T09:23:42.451Z,4.13
2018-05-21T09:26:20.905Z,3.67
2018-05-21T09:28:58.038Z,3.87
2018-05-21T09:31:34.989Z,3.73
2018-05-21T09:34:11.091Z,3.80
2018-05-21T09:36:47.771Z,3.70
2018-05-21T09:39:23.970Z,3.80
2018-05-21T09:42:00.015Z,3.40
2018-05-21T09:44:36.927Z,4.03
2018-05-21T09:47:14.756Z,3.90
2018-05-21T09:49:57.461Z,3.40
2018-05-21T09:52:33.585Z,3.67
2018-05-21T09:55:09.568Z,3.60
2018-05-21T09:57:45.421Z,2.77
2018-05-21T10:00:24.248Z,3.90
2018-05-21T10:05:37.355Z,3.30
2018-05-21T10:08:15.112Z,3.80
2018-05-21T10:10:51.826Z,3.40
2018-05-21T10:13:28.926Z,2.97
2018-05-21T10:16:05.714Z,3.40
2018-05-21T10:18:42.167Z,3.33
2018-05-21T10:21:18.448Z,3.40
2018-05-21T10:23:54.905Z,3.40
2018-05-21T10:26:30.944Z,3.23
2018-05-21T10:29:07.335Z,3.20
2018-05-21T10:31:43.767Z,3.40
2018-05-21T10:34:20.041Z,3.60
2018-05-21T10:36:56.769Z,3.13
2018-05-21T10:39:33.154Z,3.30
2018-05-21T10:42:08.966Z,2.60
2018-05-21T10:44:45.717Z,2.73
2018-05-21T10:47:21.667Z,2.97
2018-05-21T10:49:58.641Z,2.90
2018-05-21T10:52:35.335Z,2.80
2018-05-21T10:55:11.494Z,2.60
2018-05-21T10:57:47.641Z,2.60
2018-05-21T11:00:24.157Z,2.80
2018-05-21T11:03:00.969Z,3.10
2018-05-21T11:05:37.367Z,3.30
2018-05-21T11:08:13.296Z,2.80
2018-05-21T11:10:49.695Z,2.77
2018-05-21T11:13:26.203Z,3.10
2018-05-21T11:16:02.032Z,3.40
2018-05-21T11:18:38.148Z,3.23
2018-05-21T11:21:14.608Z,3.57
2018-05-21T11:23:51.140Z,3.60
2018-05-21T11:26:26.998Z,4.47
2018-05-21T11:29:03.383Z,2.77
2018-05-21T11:31:39.276Z,2.87
2018-05-21T11:34:15.328Z,2.70
2018-05-21T11:36:52.221Z,3.17
2018-05-21T11:39:28.368Z,2.83
2018-05-21T11:42:05.549Z,3.90
2018-05-21T11:44:42.836Z,3.67
2018-05-21T11:47:18.835Z,3.30
2018-05-21T11:49:54.968Z,2.73
2018-05-21T11:52:31.341Z,3.97
2018-05-21T11:55:09.005Z,3.60
2018-05-21T11:57:45.771Z,3.70
2018-05-21T12:00:22.871Z,3.90
2018-05-21T12:02:59.366Z,2.80
2018-05-21T12:05:35.316Z,3.10
2018-05-21T12:08:11.873Z,4.00
2018-05-21T12:10:48.075Z,3.83
2018-05-21T12:13:24.005Z,3.13
2018-05-21T12:16:00.415Z,5.37
2018-05-21T12:18:36.798Z,3.77
2018-05-21T12:21:12.948Z,3.23
2018-05-21T12:23:48.990Z,3.10
2018-05-21T12:26:24.990Z,3.30
2018-05-21T12:29:00.961Z,3.07
2018-05-21T12:31:36.940Z,4.00
2018-05-21T12:34:13.018Z,2.97
2018-05-21T12:36:49.344Z,3.77
2018-05-21T12:39:25.334Z,4.07
2018-05-21T12:42:02.377Z,3.30
2018-05-21T12:44:38.839Z,3.33
2018-05-21T12:47:16.650Z,3.73
2018-05-21T12:49:53.315Z,3.63
2018-05-21T12:52:29.236Z,2.70
2018-05-21T12:55:06.610Z,4.13
2018-05-21T12:57:42.506Z,2.80
2018-05-21T13:00:19.430Z,2.90
2018-05-21T13:02:56.252Z,2.70
2018-05-21T13:05:32.278Z,2.70
2018-05-21T13:08:08.312Z,3.80
2018-05-21T13:10:44.642Z,3.57
2018-05-21T13:13:21.108Z,4.53
2018-05-21T13:15:57.184Z,4.77
2018-05-21T13:18:33.390Z,2.83
2018-05-21T13:21:09.256Z,2.50
2018-05-21T13:23:45.360Z,4.27
2018-05-21T13:26:22.889Z,3.50
2018-05-21T13:28:59.861Z,2.97
2018-05-21T13:31:36.466Z,3.17
2018-05-21T13:34:12.308Z,3.37
2018-05-21T13:36:48.398Z,4.33
2018-05-21T13:39:24.603Z,2.93
2018-05-21T13:42:00.700Z,3.03
2018-05-21T13:44:37.584Z,3.27
2018-05-21T13:47:13.861Z,3.10
2018-05-21T13:49:51.338Z,2.87
2018-05-21T13:52:27.682Z,3.07
2018-05-21T13:55:03.990Z,2.60
2018-05-21T13:57:39.923Z,2.70
2018-05-21T14:00:16.753Z,3.37
2018-05-21T14:02:53.931Z,2.90
2018-05-21T14:05:30.590Z,3.50
2018-05-21T14:08:07.756Z,3.10
2018-05-21T14:10:44.193Z,2.73
2018-05-21T14:13:20.776Z,3.13
2018-05-21T14:15:56.578Z,2.70
2018-05-21T14:18:32.517Z,3.47
2018-05-21T14:21:09.547Z,3.63
2018-05-21T14:23:46.490Z,2.80
2018-05-21T14:26:22.653Z,2.90
2018-05-21T14:28:58.563Z,3.00
2018-05-21T14:31:34.624Z,3.47
2018-05-21T14:34:10.700Z,2.90
2018-05-21T14:36:47.076Z,2.90
2018-05-21T14:39:23.739Z,2.90
2018-05-21T14:42:01.465Z,3.27
2018-05-21T14:44:37.800Z,3.50
2018-05-21T14:47:14.632Z,2.70
2018-05-21T14:49:50.663Z,3.50
2018-05-21T14:52:27.654Z,2.93
2018-05-21T14:55:03.923Z,3.73
2018-05-21T14:57:39.852Z,2.97
2018-05-21T15:00:16.135Z,2.70
2018-05-21T15:02:52.864Z,3.30
2018-05-21T15:05:30.612Z,3.30
2018-05-21T15:08:06.768Z,2.67
2018-05-21T15:10:43.233Z,3.70
2018-05-21T15:13:20.055Z,4.47
2018-05-21T15:15:56.500Z,2.70
2018-05-21T15:18:34.408Z,3.43
2018-05-21T15:21:11.515Z,3.53
2018-05-21T15:23:48.101Z,3.20
2018-05-21T15:26:24.652Z,3.07
2018-05-21T15:29:01.764Z,3.23
2018-05-21T15:31:38.800Z,3.47
2018-05-21T15:34:15.026Z,3.37
2018-05-21T15:36:50.987Z,3.10
2018-05-21T15:39:27.374Z,3.73
2018-05-21T15:42:03.540Z,3.50
2018-05-21T15:44:39.373Z,3.10
2018-05-21T15:47:16.319Z,3.90
2018-05-21T15:49:53.776Z,4.00
2018-05-21T15:52:31.251Z,3.40
2018-05-21T15:55:07.930Z,3.60
2018-05-21T15:57:44.857Z,3.50
2018-05-21T16:00:20.707Z,2.83
2018-05-21T16:02:57.863Z,4.17
2018-05-21T16:05:33.876Z,3.70
2018-05-21T16:08:09.951Z,3.73
2018-05-21T16:10:46.453Z,3.30
2018-05-21T16:13:23.290Z,3.50
2018-05-21T16:15:59.231Z,3.00
2018-05-21T16:18:34.989Z,3.17
2018-05-21T16:21:10.951Z,2.80
2018-05-21T16:23:46.900Z,3.17
2018-05-21T16:26:23.275Z,3.20
2018-05-21T16:28:59.212Z,3.17
2018-05-21T16:31:34.929Z,3.00
2018-05-21T16:34:11.893Z,3.03
2018-05-21T16:36:47.811Z,3.65
2018-05-21T16:39:24.166Z,3.50
2018-05-21T16:42:00.130Z,3.08
2018-05-21T16:44:39.047Z,3.60
2018-05-21T16:47:20.344Z,3.65
2018-05-21T16:49:57.332Z,3.60
2018-05-21T16:52:33.395Z,3.55
2018-05-21T16:55:10.313Z,2.87
2018-05-21T16:57:49.945Z,3.58
2018-05-21T17:00:32.168Z,3.62
2018-05-21T17:03:14.920Z,3.60
2018-05-21T17:05:56.444Z,4.00
2018-05-21T17:08:33.222Z,3.58
2018-05-21T17:11:09.470Z,3.47
2018-05-21T17:13:48.396Z,2.90
2018-05-21T17:16:25.040Z,3.20
2018-05-21T17:19:13.175Z,3.35
2018-05-21T17:21:53.500Z,3.90
2018-05-21T17:24:35.847Z,3.42
2018-05-21T17:27:24.107Z,3.60
2018-05-21T17:30:07.190Z,3.87
2018-05-21T17:32:46.837Z,3.60
2018-05-21T17:35:23.527Z,3.85
2018-05-21T17:38:04.790Z,4.75
2018-05-21T17:40:41.362Z,4.00
2018-05-21T17:43:18.017Z,4.70
2018-05-21T17:45:56.141Z,4.78
2018-05-21T17:48:33.344Z,4.55
2018-05-21T17:51:09.792Z,4.18
2018-05-21T17:53:46.025Z,4.20
2018-05-21T17:56:22.716Z,4.37
2018-05-21T17:59:00.216Z,4.30
2018-05-21T18:01:39.452Z,4.00
2018-05-21T18:04:20.453Z,4.33
2018-05-21T18:07:05.858Z,3.53
2018-05-21T18:09:44.535Z,4.67
2018-05-21T18:12:20.557Z,3.00
2018-05-21T18:14:57.616Z,3.13
2018-05-21T18:17:39.221Z,3.80
2018-05-21T18:20:21.565Z,3.27
2018-05-21T18:23:03.382Z,2.93
2018-05-21T18:25:40.330Z,3.03
2018-05-21T18:28:16.800Z,3.83
2018-05-21T18:30:53.629Z,3.30
2018-05-21T18:33:31.129Z,3.80
2018-05-21T18:36:07.445Z,3.57
2018-05-21T18:38:43.579Z,2.77
2018-05-21T18:41:20.149Z,3.23
2018-05-21T18:43:58.257Z,3.10
2018-05-21T18:46:37.378Z,4.17
2018-05-21T18:49:14.045Z,12.17
2018-05-21T18:51:51.048Z,6.40
2018-05-21T18:54:29.249Z,3.87
2018-05-21T18:58:30.015Z,4.30
2018-05-21T19:01:06.802Z,3.30
2018-05-21T19:03:44.189Z,3.13
2018-05-21T19:06:21.676Z,3.77
2018-05-21T19:08:58.227Z,3.53
2018-05-21T19:11:34.578Z,3.53
2018-05-21T19:14:11.961Z,3.20
2018-05-21T19:16:49.505Z,4.63
2018-05-21T19:19:30.901Z,4.57
2018-05-21T19:22:07.983Z,3.77
2018-05-21T19:24:44.726Z,3.30
2018-05-21T19:27:21.250Z,2.93
2018-05-21T19:29:57.507Z,4.60
2018-05-21T19:32:33.909Z,3.13
2018-05-21T19:35:11.045Z,2.90
2018-05-21T19:37:47.490Z,3.20
2018-05-21T19:40:23.756Z,2.70
2018-05-21T19:43:00.272Z,2.60
2018-05-21T19:45:36.486Z,3.13
2018-05-21T19:48:13.119Z,3.23
2018-05-21T19:50:50.095Z,2.97
2018-05-21T19:53:27.269Z,2.47
2018-05-21T19:56:04.937Z,2.83
2018-05-21T19:58:41.448Z,3.40
2018-05-21T20:01:18.678Z,2.20
2018-05-21T20:03:55.806Z,3.23
2018-05-21T20:06:33.217Z,3.33
2018-05-21T20:09:10.097Z,3.17
2018-05-21T20:11:46.604Z,3.00
2018-05-21T20:14:22.685Z,3.10
2018-05-21T20:16:59.167Z,3.00
2018-05-21T20:19:36.302Z,3.10
2018-05-21T20:22:12.445Z,3.33
2018-05-21T20:24:49.669Z,2.83
2018-05-21T20:27:27.236Z,2.60
2018-05-21T20:30:03.105Z,2.70
2018-05-21T20:32:39.435Z,2.60
2018-05-21T20:35:15.399Z,2.60
2018-05-21T20:37:51.751Z,2.77
2018-05-21T20:40:28.174Z,2.63
2018-05-21T20:43:04.288Z,2.90
2018-05-21T20:45:42.797Z,2.90
2018-05-21T20:48:19.302Z,3.10
2018-05-21T20:50:56.180Z,3.37
2018-05-21T20:53:33.926Z,3.03
2018-05-21T20:56:10.340Z,3.10
2018-05-21T20:58:46.638Z,3.30
2018-05-21T21:01:24.038Z,3.20
2018-05-21T21:04:01.304Z,3.00
2018-05-21T21:06:37.469Z,2.90
2018-05-21T21:09:14.675Z,2.73
2018-05-21T21:11:52.696Z,3.07
2018-05-21T21:14:29.431Z,3.23
2018-05-21T21:17:05.450Z,2.57
2018-05-21T21:19:42.714Z,2.93
2018-05-21T21:22:19.891Z,3.03
2018-05-21T21:24:57.612Z,2.93
2018-05-21T21:27:35.043Z,3.13
2018-05-21T21:30:11.370Z,3.17
2018-05-21T21:32:47.589Z,3.50
2018-05-21T21:35:25.886Z,3.00
2018-05-21T21:38:02.193Z,3.00
2018-05-21T21:40:39.725Z,3.30
2018-05-21T21:43:16.856Z,3.80
2018-05-21T21:45:53.627Z,3.67
2018-05-21T21:48:29.708Z,3.20
2018-05-21T21:51:05.937Z,2.90
2018-05-21T21:53:42.783Z,3.17
2018-05-21T21:56:19.863Z,3.17
2018-05-21T21:58:57.244Z,3.10
2018-05-21T22:01:33.002Z,3.40
2018-05-21T22:04:09.537Z,3.43
2018-05-21T22:06:46.362Z,3.17
2018-05-21T22:09:22.722Z,3.00
2018-05-21T22:12:00.630Z,3.17
2018-05-21T22:14:37.398Z,2.50
2018-05-21T22:17:13.953Z,3.17
2018-05-21T22:19:50.635Z,2.97
2018-05-21T22:22:26.696Z,3.20
2018-05-21T22:25:03.060Z,3.63
2018-05-21T22:27:40.551Z,3.47
2018-05-21T22:30:16.758Z,3.37
2018-05-21T22:32:53.067Z,3.50
2018-05-21T22:35:29.772Z,3.30
2018-05-21T22:38:06.509Z,3.20
2018-05-21T22:40:42.724Z,3.53
2018-05-21T22:43:19.302Z,3.30
2018-05-21T22:45:55.454Z,3.20
2018-05-21T22:48:31.567Z,3.27
2018-05-21T22:51:08.672Z,3.27
2018-05-21T22:53:44.804Z,3.23
2018-05-21T22:56:21.063Z,3.13
2018-05-21T22:58:59.507Z,3.17
2018-05-21T23:01:35.757Z,2.73
2018-05-21T23:04:12.105Z,2.90
2018-05-21T23:06:49.337Z,3.40
2018-05-21T23:09:25.543Z,2.80
2018-05-21T23:12:02.094Z,3.17
2018-05-21T23:14:38.378Z,2.90
2018-05-21T23:17:16.014Z,3.20
2018-05-21T23:19:52.169Z,3.80
2018-05-21T23:22:37.122Z,3.20
2018-05-21T23:25:14.566Z,3.90
2018-05-21T23:27:50.670Z,3.40
2018-05-21T23:30:26.945Z,3.03
2018-05-21T23:33:03.062Z,3.40
2018-05-21T23:35:39.444Z,3.60
2018-05-21T23:38:17.347Z,3.80
2018-05-21T23:40:53.338Z,3.30
2018-05-21T23:43:29.981Z,3.40
2018-05-21T23:46:06.663Z,4.10
2018-05-21T23:48:42.624Z,3.33
2018-05-21T23:51:19.903Z,3.73
2018-05-21T23:53:56.721Z,3.83
2018-05-21T23:56:32.692Z,3.80
2018-05-21T23:59:08.795Z,3.60
